Time;durP1;ratioP1;P1;durP2;ratioP2;P2;SDS_P1;SDS_P2;PMS_P1;PMS_P2;Temp;Humidity;BMP_temperature;BMP_pressure;BME280_temperature;BME280_humidity;BME280_pressure;Samples;Min_cycle;Max_cycle;Signal;HPM_P1;HPM_P2
2021/03/05 00:01:42;;;;;;;8.77;3.58;;;;;;;6.40;43.12;101806.16;5090494;28;20523;-74
2021/03/05 00:04:10;;;;;;;6.47;2.78;;;;;;;6.40;43.32;101808.88;5088184;28;20437;-74
2021/03/05 00:06:37;;;;;;;8.23;3.10;;;;;;;6.40;43.29;101810.72;5090714;28;20040;-74
2021/03/05 00:09:07;;;;;;;9.23;3.40;;;;;;;6.41;43.37;101823.34;5075420;28;20048;-74
2021/03/05 00:11:34;;;;;;;6.45;3.33;;;;;;;6.40;43.34;101818.88;5096512;28;20089;-74
2021/03/05 00:14:01;;;;;;;7.10;3.00;;;;;;;6.40;43.43;101827.91;5094128;28;20040;-74
2021/03/05 00:16:29;;;;;;;5.43;3.00;;;;;;;6.40;43.43;101818.88;5083569;28;20399;-74
2021/03/05 00:18:56;;;;;;;8.25;3.05;;;;;;;6.39;43.53;101817.09;5089912;28;20039;-74
2021/03/05 00:21:23;;;;;;;8.10;2.83;;;;;;;6.40;43.28;101821.59;5088329;28;20127;-75
2021/03/05 00:23:51;;;;;;;6.78;2.90;;;;;;;6.39;43.55;101819.81;5086486;28;20086;-74
2021/03/05 00:26:19;;;;;;;5.97;2.90;;;;;;;6.40;43.35;101821.59;5088984;28;20048;-74
2021/03/05 00:28:46;;;;;;;6.15;2.83;;;;;;;6.38;43.18;101839.81;5090556;28;20119;-74
2021/03/05 00:31:13;;;;;;;7.78;2.88;;;;;;;6.38;43.24;101827.09;5089286;28;20522;-74
2021/03/05 00:33:41;;;;;;;9.05;3.20;;;;;;;6.38;43.27;101828.94;5089005;28;20395;-74
2021/03/05 00:36:09;;;;;;;6.78;2.97;;;;;;;6.36;43.14;101829.88;5087420;28;20044;-74
2021/03/05 00:38:36;;;;;;;6.80;2.42;;;;;;;6.36;43.17;101831.72;5095971;28;20040;-74
2021/03/05 00:41:03;;;;;;;5.82;2.60;;;;;;;6.36;42.98;101837.16;5088270;28;20406;-75
2021/03/05 00:43:32;;;;;;;8.88;3.17;;;;;;;6.35;43.10;101833.56;5093836;28;20043;-75
2021/03/05 00:45:59;;;;;;;7.38;2.92;;;;;;;6.35;42.99;101839.00;5086528;28;20051;-75
2021/03/05 00:48:32;;;;;;;7.28;3.08;;;;;;;6.31;42.89;101841.97;5071499;28;20032;-75
2021/03/05 00:51:03;;;;;;;9.32;3.20;;;;;;;6.33;42.88;101831.91;5074377;28;20043;-75
2021/03/05 00:53:30;;;;;;;9.50;3.22;;;;;;;6.31;42.74;101840.13;5088741;28;20080;-75
2021/03/05 00:55:58;;;;;;;7.68;2.80;;;;;;;6.30;42.92;101846.53;5069971;28;20052;-75
2021/03/05 00:58:25;;;;;;;10.90;3.42;;;;;;;6.29;42.54;101843.88;5071731;28;20471;-75
2021/03/05 01:01:00;;;;;;;10.40;3.55;;;;;;;6.27;42.69;101846.69;5069353;28;20063;-75
2021/03/05 01:03:30;;;;;;;6.07;3.10;;;;;;;6.25;42.47;101845.03;5069023;28;20041;-75
2021/03/05 01:06:16;;;;;;;10.10;3.65;;;;;;;6.22;42.57;101861.47;5071680;28;20122;-75
2021/03/05 01:08:49;;;;;;;13.05;3.65;;;;;;;6.18;42.53;101858.03;5085399;28;20043;-75
2021/03/05 01:11:16;;;;;;;8.77;3.45;;;;;;;6.18;42.45;101847.16;5080894;28;20170;-75
2021/03/05 01:13:43;;;;;;;8.48;2.67;;;;;;;6.17;42.20;101858.13;5071482;28;20036;-75
2021/03/05 01:16:11;;;;;;;10.82;3.40;;;;;;;6.15;42.63;101844.63;5068014;28;20044;-75
2021/03/05 01:18:39;;;;;;;8.82;3.42;;;;;;;6.13;42.59;101851.09;5094148;28;20063;-75
2021/03/05 01:21:07;;;;;;;7.72;2.83;;;;;;;6.13;42.73;101859.22;5098844;28;20070;-75
2021/03/05 01:23:34;;;;;;;8.88;3.22;;;;;;;6.10;42.62;101862.97;5100258;28;20123;-75
2021/03/05 01:26:02;;;;;;;7.82;3.38;;;;;;;6.10;42.54;101859.38;5096796;28;20075;-75
2021/03/05 01:28:30;;;;;;;8.85;3.35;;;;;;;6.08;42.52;101858.59;5089801;28;20040;-74
2021/03/05 01:30:57;;;;;;;8.30;3.58;;;;;;;6.07;42.43;101859.56;5091000;28;20043;-74
2021/03/05 01:33:26;;;;;;;8.18;4.00;;;;;;;6.07;42.65;101865.00;5089027;28;20414;-74
2021/03/05 01:35:53;;;;;;;8.20;3.50;;;;;;;6.04;42.74;101854.28;5069408;28;20123;-74
2021/03/05 01:38:20;;;;;;;7.07;3.50;;;;;;;6.03;42.76;101861.53;5089227;28;20109;-75
2021/03/05 01:40:48;;;;;;;7.63;3.80;;;;;;;6.03;42.57;101860.66;5091814;28;20122;-75
2021/03/05 01:43:18;;;;;;;9.43;4.00;;;;;;;6.03;42.58;101853.38;5092151;28;20592;-75
2021/03/05 01:45:47;;;;;;;7.25;3.60;;;;;;;6.02;42.80;101854.34;5069798;28;20459;-75
2021/03/05 01:48:16;;;;;;;9.15;3.70;;;;;;;6.03;43.01;101855.22;5072744;28;20123;-75
2021/03/05 01:50:53;;;;;;;9.73;3.60;;;;;;;6.04;42.71;101855.16;5090103;28;20060;-75
2021/03/05 01:53:21;;;;;;;10.45;4.25;;;;;;;6.02;42.73;101856.19;5083693;28;20044;-75
2021/03/05 01:55:50;;;;;;;11.07;3.85;;;;;;;6.01;42.71;101859.88;5078120;28;20132;-75
2021/03/05 01:58:17;;;;;;;9.23;3.75;;;;;;;6.02;42.68;101858.91;5064978;28;20074;-76
2021/03/05 02:00:48;;;;;;;8.50;3.70;;;;;;;6.01;42.82;101860.72;5050410;28;20052;-75
2021/03/05 02:03:15;;;;;;;9.85;3.97;;;;;;;5.99;42.86;101846.38;5082527;28;20063;-75
2021/03/05 02:05:43;;;;;;;11.98;4.93;;;;;;;5.99;42.82;101851.81;5088470;28;20474;-75
2021/03/05 02:08:13;;;;;;;12.32;4.95;;;;;;;6.00;42.84;101866.28;5078942;28;20410;-75
2021/03/05 02:10:42;;;;;;;12.75;4.70;;;;;;;5.99;42.94;101862.66;5083014;28;20056;-75
2021/03/05 02:13:09;;;;;;;8.93;4.38;;;;;;;5.98;42.57;101867.22;5074166;28;20043;-75
2021/03/05 02:15:39;;;;;;;12.18;4.55;;;;;;;5.98;42.65;101861.78;5086787;28;20040;-75
2021/03/05 02:18:14;;;;;;;11.32;4.43;;;;;;;5.99;42.85;101868.09;5061466;28;20060;-75
2021/03/05 02:21:02;;;;;;;11.50;4.30;;;;;;;5.99;43.11;101870.81;5085623;28;20040;-76
2021/03/05 02:23:49;;;;;;;12.88;4.63;;;;;;;5.96;43.30;101865.53;5088690;28;20483;-75
2021/03/05 02:26:53;;;;;;;9.73;4.60;;;;;;;5.97;43.36;101867.28;5069995;28;20420;-75
2021/03/05 02:29:44;;;;;;;12.95;4.53;;;;;;;5.97;43.26;101870.88;5084576;28;20093;-75
2021/03/05 02:32:19;;;;;;;13.18;6.13;;;;;;;5.96;43.02;101871.84;5087462;28;20044;-75
2021/03/05 02:34:49;;;;;;;12.82;5.75;;;;;;;5.96;43.15;101874.56;5086737;28;20124;-75
2021/03/05 02:37:29;;;;;;;13.50;6.40;;;;;;;5.96;43.19;101880.00;5091168;28;20040;-75
2021/03/05 02:40:05;;;;;;;11.85;5.97;;;;;;;5.99;43.61;101884.41;5088105;28;20038;-75
2021/03/05 02:42:38;;;;;;;12.93;5.80;;;;;;;5.99;43.47;101881.69;5087446;28;20666;-75
2021/03/05 02:45:09;;;;;;;16.30;8.13;;;;;;;5.95;43.40;101888.22;5087418;28;20426;-75
2021/03/05 02:47:41;;;;;;;14.05;6.70;;;;;;;5.96;43.12;101881.81;5091988;28;20596;-76
2021/03/05 02:50:12;;;;;;;15.18;6.88;;;;;;;5.94;43.32;101883.72;5087196;28;20044;-76
2021/03/05 02:52:42;;;;;;;11.07;5.50;;;;;;;5.95;43.41;101890.94;5095554;28;20055;-75
2021/03/05 02:55:11;;;;;;;11.57;5.90;;;;;;;5.95;43.36;101891.81;5071987;28;20066;-75
2021/03/05 02:57:45;;;;;;;17.48;7.30;;;;;;;5.95;43.68;101893.63;5092151;28;20036;-76
2021/03/05 03:00:14;;;;;;;12.23;6.32;;;;;;;5.92;43.20;101893.81;5055688;28;20546;-76
2021/03/05 03:02:46;;;;;;;14.35;7.25;;;;;;;5.92;43.47;101901.97;5088761;28;20097;-75
2021/03/05 03:05:15;;;;;;;12.23;7.30;;;;;;;5.88;43.22;101898.50;5093927;28;20502;-75
2021/03/05 03:07:49;;;;;;;17.10;7.75;;;;;;;5.88;43.19;101903.06;5087893;28;20519;-76
2021/03/05 03:10:19;;;;;;;14.30;7.70;;;;;;;5.84;43.08;101907.75;5088634;28;20044;-75
2021/03/05 03:12:47;;;;;;;14.93;8.20;;;;;;;5.82;43.29;101911.53;5095121;28;20040;-75
2021/03/05 03:15:15;;;;;;;13.73;7.45;;;;;;;5.81;43.05;101917.91;5084961;28;20040;-75
2021/03/05 03:17:45;;;;;;;13.45;7.40;;;;;;;5.78;43.27;101915.31;5091058;28;20040;-75
2021/03/05 03:20:17;;;;;;;13.15;7.03;;;;;;;5.76;43.14;101914.56;5070649;28;20036;-76
2021/03/05 03:22:44;;;;;;;14.45;7.20;;;;;;;5.73;43.09;101920.13;5087767;28;20461;-76
2021/03/05 03:25:14;;;;;;;15.10;7.85;;;;;;;5.71;43.21;101917.47;5073221;28;20040;-76
2021/03/05 03:27:42;;;;;;;14.77;7.85;;;;;;;5.68;43.30;101923.03;5089033;28;20041;-75
2021/03/05 03:30:11;;;;;;;14.77;7.28;;;;;;;5.65;43.24;101933.19;5076303;28;20125;-75
2021/03/05 03:32:39;;;;;;;14.00;7.80;;;;;;;5.62;43.21;101936.03;5089305;28;20100;-76
2021/03/05 03:35:10;;;;;;;12.63;7.65;;;;;;;5.59;43.13;101935.22;5089087;28;20086;-76
2021/03/05 03:37:39;;;;;;;14.05;7.82;;;;;;;5.55;43.20;101939.06;5091392;28;20040;-75
2021/03/05 03:40:07;;;;;;;13.43;7.57;;;;;;;5.53;43.05;101940.97;5087027;28;20436;-75
2021/03/05 03:42:34;;;;;;;10.82;6.78;;;;;;;5.49;43.01;101938.47;5070696;28;20051;-75
2021/03/05 03:45:02;;;;;;;11.13;6.88;;;;;;;5.48;43.24;101943.03;5090843;28;20042;-76
2021/03/05 03:47:32;;;;;;;11.88;7.40;;;;;;;5.44;43.01;101945.91;5077035;28;20038;-76
2021/03/05 03:50:03;;;;;;;10.02;6.35;;;;;;;5.45;43.10;101947.66;5085682;28;20040;-75
2021/03/05 03:52:35;;;;;;;9.57;5.68;;;;;;;5.45;43.40;101958.53;5085511;28;20051;-75
2021/03/05 03:55:03;;;;;;;11.55;6.70;;;;;;;5.42;43.29;101943.28;5098235;28;20119;-76
2021/03/05 03:57:36;;;;;;;11.13;6.80;;;;;;;5.43;43.26;101957.75;5075075;28;20494;-76
2021/03/05 04:00:06;;;;;;;12.32;6.75;;;;;;;5.42;43.15;101962.28;5087337;28;20047;-76
2021/03/05 04:02:39;;;;;;;11.52;7.00;;;;;;;5.41;43.29;101959.63;5089586;28;20036;-75
2021/03/05 04:05:10;;;;;;;11.30;6.28;;;;;;;5.43;43.48;101960.47;5092206;28;20051;-76
2021/03/05 04:07:43;;;;;;;10.55;5.60;;;;;;;5.42;43.62;101967.72;5092806;28;20062;-75
2021/03/05 04:10:12;;;;;;;11.38;6.80;;;;;;;5.44;43.43;101968.50;5094687;28;20135;-76
2021/03/05 04:12:53;;;;;;;11.75;6.55;;;;;;;5.44;43.47;101967.63;5069153;28;20378;-75
2021/03/05 04:15:21;;;;;;;12.32;7.25;;;;;;;5.47;43.46;101972.91;5090236;28;20666;-75
2021/03/05 04:18:09;;;;;;;11.85;6.90;;;;;;;5.47;43.34;101967.47;5096133;28;20382;-75
2021/03/05 04:21:00;;;;;;;11.50;7.05;;;;;;;5.51;43.43;101986.28;5091420;28;20051;-75
2021/03/05 04:23:48;;;;;;;10.27;6.30;;;;;;;5.53;43.32;101980.78;5092566;28;20051;-76
2021/03/05 04:26:35;;;;;;;10.80;6.43;;;;;;;5.53;43.46;101986.22;5096682;28;20445;-76
2021/03/05 04:29:22;;;;;;;11.02;7.10;;;;;;;5.52;43.21;101987.16;5090129;28;20052;-76
2021/03/05 04:32:09;;;;;;;11.85;7.47;;;;;;;5.51;43.20;101991.72;5085326;28;20415;-76
2021/03/05 04:34:36;;;;;;;10.35;5.85;;;;;;;5.53;42.80;101992.53;5089045;28;20036;-76
2021/03/05 04:37:04;;;;;;;9.93;6.10;;;;;;;5.52;42.88;101998.91;5071125;28;20063;-75
2021/03/05 04:39:34;;;;;;;10.30;6.30;;;;;;;5.51;42.86;101999.84;5087589;28;20032;-75
2021/03/05 04:42:01;;;;;;;11.60;7.55;;;;;;;5.48;42.86;102002.72;5069528;28;20055;-75
2021/03/05 04:44:29;;;;;;;9.25;6.38;;;;;;;5.48;42.57;102002.72;5099802;28;20031;-75
2021/03/05 04:46:56;;;;;;;11.43;6.40;;;;;;;5.47;42.77;102009.09;5095524;28;20040;-75
2021/03/05 04:49:23;;;;;;;10.73;6.32;;;;;;;5.45;42.81;102007.38;5090757;28;20032;-76
2021/03/05 04:51:51;;;;;;;11.05;6.82;;;;;;;5.44;42.68;102011.91;5089808;28;20060;-75
2021/03/05 04:54:18;;;;;;;11.00;6.43;;;;;;;5.43;42.77;102020.16;5072164;28;20154;-75
2021/03/05 04:56:46;;;;;;;10.07;5.97;;;;;;;5.44;42.71;102016.47;5087152;28;20036;-76
2021/03/05 04:59:14;;;;;;;9.15;5.68;;;;;;;5.42;42.73;102023.81;5083945;28;20114;-75
2021/03/05 05:01:41;;;;;;;9.35;5.53;;;;;;;5.43;42.65;102025.59;5089420;28;20039;-75
2021/03/05 05:04:09;;;;;;;7.80;4.88;;;;;;;5.42;42.83;102031.97;5087615;28;20043;-76
2021/03/05 05:06:40;;;;;;;8.55;5.30;;;;;;;5.39;42.79;102027.53;5092439;28;20044;-75
2021/03/05 05:09:18;;;;;;;9.63;5.38;;;;;;;5.39;42.49;102032.09;5085015;28;20042;-75
2021/03/05 05:11:46;;;;;;;8.43;5.38;;;;;;;5.38;42.53;102035.75;5088450;28;20090;-75
2021/03/05 05:14:14;;;;;;;8.65;5.75;;;;;;;5.38;42.39;102046.59;5067659;28;20040;-76
2021/03/05 05:16:41;;;;;;;9.48;5.50;;;;;;;5.37;42.47;102048.44;5064233;28;20071;-75
2021/03/05 05:19:09;;;;;;;8.95;4.93;;;;;;;5.37;42.43;102050.25;5083089;28;20097;-75
2021/03/05 05:21:37;;;;;;;9.10;4.93;;;;;;;5.35;42.56;102050.31;5069987;28;20051;-75
2021/03/05 05:24:06;;;;;;;10.27;5.85;;;;;;;5.35;42.46;102049.44;5085321;28;20043;-75
2021/03/05 05:26:33;;;;;;;8.48;5.03;;;;;;;5.34;42.58;102056.72;5087058;28;20040;-76
2021/03/05 05:29:01;;;;;;;9.50;4.65;;;;;;;5.35;42.27;102063.00;5089083;28;20048;-75
2021/03/05 05:31:29;;;;;;;9.35;4.85;;;;;;;5.32;42.39;102066.75;5088068;28;20046;-75
2021/03/05 05:33:57;;;;;;;7.50;4.45;;;;;;;5.32;42.50;102063.16;5087334;28;20028;-75
2021/03/05 05:36:24;;;;;;;8.10;4.55;;;;;;;5.31;42.43;102066.84;5092320;28;20557;-76
2021/03/05 05:38:51;;;;;;;7.53;4.13;;;;;;;5.30;42.20;102076.81;5063945;28;20059;-76
2021/03/05 05:41:19;;;;;;;7.18;3.80;;;;;;;5.29;42.23;102075.03;5074374;28;20056;-76
2021/03/05 05:43:47;;;;;;;7.57;4.38;;;;;;;5.29;41.89;102082.28;5096537;28;20040;-75
2021/03/05 05:46:17;;;;;;;5.70;3.70;;;;;;;5.29;41.90;102085.00;5079573;28;20407;-75
2021/03/05 05:48:48;;;;;;;5.90;3.30;;;;;;;5.26;41.80;102083.34;5068157;28;20433;-74
2021/03/05 05:51:18;;;;;;;5.45;3.30;;;;;;;5.25;41.70;102083.38;5086289;28;20056;-75
2021/03/05 05:53:55;;;;;;;4.85;3.03;;;;;;;5.24;41.81;102085.22;5084547;28;20032;-75
2021/03/05 05:56:22;;;;;;;5.43;3.17;;;;;;;5.19;41.48;102079.97;5085729;28;20050;-75
2021/03/05 05:58:51;;;;;;;4.93;2.80;;;;;;;5.21;41.64;102088.06;5093616;28;20097;-75
2021/03/05 06:01:19;;;;;;;5.55;2.88;;;;;;;5.17;41.33;102095.47;5063863;28;20047;-75
2021/03/05 06:03:47;;;;;;;4.85;2.97;;;;;;;5.15;41.26;102093.75;5097579;28;20108;-75
2021/03/05 06:06:16;;;;;;;4.47;2.65;;;;;;;5.13;41.64;102110.09;5093828;28;20140;-75
2021/03/05 06:08:57;;;;;;;4.97;2.80;;;;;;;5.13;41.35;102112.81;5092007;28;20399;-75
2021/03/05 06:11:30;;;;;;;4.70;2.63;;;;;;;5.10;41.57;102109.38;5067613;28;20055;-76
2021/03/05 06:14:00;;;;;;;4.25;2.17;;;;;;;5.10;41.57;102126.50;5092394;28;20072;-76
2021/03/05 06:16:29;;;;;;;4.18;2.17;;;;;;;5.08;41.52;102119.41;5078662;28;20126;-75
2021/03/05 06:18:58;;;;;;;4.82;2.58;;;;;;;5.07;41.61;102131.19;5095550;28;20423;-76
2021/03/05 06:21:44;;;;;;;5.00;2.70;;;;;;;5.08;41.14;102138.38;5092090;28;20079;-75
2021/03/05 06:24:11;;;;;;;4.60;2.50;;;;;;;5.05;41.49;102135.78;5089599;28;20036;-74
2021/03/05 06:26:51;;;;;;;5.07;2.63;;;;;;;5.08;40.99;102147.41;5094259;28;20411;-74
2021/03/05 06:29:19;;;;;;;5.28;2.30;;;;;;;5.05;41.56;102149.34;5090030;28;20047;-74
2021/03/05 06:31:56;;;;;;;5.00;2.75;;;;;;;5.05;40.29;102160.19;5100476;28;20047;-75
2021/03/05 06:34:24;;;;;;;5.50;2.42;;;;;;;4.99;40.96;102168.59;5092733;28;21508;-74
2021/03/05 06:37:02;;;;;;;4.50;2.40;;;;;;;5.00;40.33;102173.09;5087323;28;20032;-74
2021/03/05 06:39:31;;;;;;;6.43;2.72;;;;;;;4.94;40.65;102173.31;5094078;28;20538;-74
2021/03/05 06:42:04;;;;;;;4.22;2.35;;;;;;;4.93;40.48;102177.00;5092430;28;20036;-73
2021/03/05 06:44:33;;;;;;;4.53;2.25;;;;;;;4.86;41.22;102173.63;5102791;28;20184;-73
2021/03/05 06:47:13;;;;;;;4.75;2.30;;;;;;;4.87;40.82;102180.84;5096412;28;20044;-74
2021/03/05 06:49:41;;;;;;;3.92;2.20;;;;;;;4.82;41.02;102181.03;5097713;28;20123;-74
2021/03/05 06:52:09;;;;;;;3.83;2.05;;;;;;;4.81;40.84;102190.13;5094525;28;20036;-73
2021/03/05 06:54:38;;;;;;;5.25;2.10;;;;;;;4.80;41.09;102203.72;5087576;28;20040;-73
2021/03/05 06:57:06;;;;;;;4.40;2.38;;;;;;;4.78;40.88;102205.59;5088619;28;20044;-73
2021/03/05 06:59:36;;;;;;;3.88;1.90;;;;;;;4.77;40.62;102212.00;5087356;28;20487;-72
2021/03/05 07:02:06;;;;;;;4.85;2.17;;;;;;;4.76;40.80;102212.94;5090164;28;20103;-71
2021/03/05 07:04:44;;;;;;;4.70;2.35;;;;;;;4.74;41.00;102215.72;5098190;28;20240;-73
2021/03/05 07:07:12;;;;;;;4.82;2.50;;;;;;;4.71;40.57;102218.53;5095327;28;20063;-75
2021/03/05 07:09:41;;;;;;;4.53;2.35;;;;;;;4.68;40.61;102221.38;5099119;28;20484;-76
2021/03/05 07:12:10;;;;;;;5.40;2.67;;;;;;;4.66;40.70;102230.50;5093072;28;20169;-72
2021/03/05 07:14:39;;;;;;;4.80;2.50;;;;;;;4.60;40.12;102228.06;5090426;28;20491;-74
2021/03/05 07:17:08;;;;;;;7.20;3.00;;;;;;;4.57;39.88;102231.75;5075461;28;20533;-77
2021/03/05 07:19:39;;;;;;;6.55;2.70;;;;;;;4.55;40.09;102236.34;5066999;28;20040;-77
2021/03/05 07:22:07;;;;;;;5.93;2.10;;;;;;;4.53;40.56;102242.75;5100756;28;20042;-75
2021/03/05 07:24:38;;;;;;;4.78;2.30;;;;;;;4.51;40.48;102245.56;5087878;28;20036;-76
2021/03/05 07:27:07;;;;;;;4.43;2.10;;;;;;;4.52;40.68;102255.47;5088650;28;20049;-74
2021/03/05 07:29:37;;;;;;;2.85;1.85;;;;;;;4.54;40.61;102266.22;5100085;28;20055;-76
2021/03/05 07:32:06;;;;;;;5.28;2.50;;;;;;;4.57;40.62;102274.22;5093421;28;20545;-75
2021/03/05 07:34:46;;;;;;;6.00;2.20;;;;;;;4.59;39.51;102278.66;5075291;28;20040;-76
2021/03/05 07:37:15;;;;;;;6.47;2.10;;;;;;;4.63;40.58;102280.28;5096387;28;20036;-78
2021/03/05 07:39:45;;;;;;;6.07;2.75;;;;;;;4.62;40.06;102283.06;5107139;28;20044;-75
2021/03/05 07:42:13;;;;;;;5.95;2.20;;;;;;;4.65;39.95;102283.84;5083966;28;20044;-74
2021/03/05 07:44:47;;;;;;;4.57;2.05;;;;;;;4.68;39.91;102290.97;5080256;28;20113;-75
2021/03/05 07:47:16;;;;;;;4.68;2.47;;;;;;;4.62;39.73;102294.78;5091199;28;20048;-75
2021/03/05 07:49:45;;;;;;;5.90;2.38;;;;;;;4.66;39.60;102293.75;5086650;28;20044;-75
2021/03/05 07:52:12;;;;;;;4.93;2.10;;;;;;;4.66;39.88;102296.44;5091541;28;20471;-75
2021/03/05 07:54:49;;;;;;;4.57;2.35;;;;;;;4.65;38.51;102297.38;5086635;28;20028;-74
2021/03/05 07:57:49;;;;;;;4.47;2.17;;;;;;;4.63;38.46;102303.81;5092319;28;21496;-74
2021/03/05 08:00:47;;;;;;;4.00;1.92;;;;;;;4.69;38.55;102304.44;5082246;28;20056;-74
2021/03/05 08:03:18;;;;;;;4.65;2.10;;;;;;;4.67;39.66;102305.47;5075655;28;20086;-74
2021/03/05 08:05:48;;;;;;;5.10;1.98;;;;;;;4.67;39.51;102319.03;5088192;28;20465;-74
2021/03/05 08:08:18;;;;;;;4.70;2.05;;;;;;;4.67;39.10;102328.03;5090005;28;20105;-73
2021/03/05 08:10:48;;;;;;;4.28;1.90;;;;;;;4.66;39.00;102334.41;5087974;28;20043;-72
2021/03/05 08:13:48;;;;;;;3.28;1.88;;;;;;;4.60;36.91;102339.16;5085790;28;20560;-72
2021/03/05 08:16:46;;;;;;;3.55;1.70;;;;;;;4.56;38.10;102338.38;5092415;28;20071;-73
2021/03/05 08:19:48;;;;;;;4.10;2.00;;;;;;;4.50;37.78;102329.63;5076858;28;20076;-72
2021/03/05 08:22:18;;;;;;;4.47;2.00;;;;;;;4.51;38.89;102340.41;5075230;28;20036;-73
2021/03/05 08:24:45;;;;;;;5.07;1.67;;;;;;;4.53;39.32;102345.75;5077992;28;20043;-72
2021/03/05 08:27:23;;;;;;;3.90;1.98;;;;;;;4.47;39.02;102346.88;5084131;28;20163;-72
2021/03/05 08:30:03;;;;;;;4.10;2.03;;;;;;;4.42;38.21;102354.28;5097244;28;20044;-72
2021/03/05 08:32:54;;;;;;;5.15;2.00;;;;;;;4.35;37.47;102339.22;5092082;28;20062;-74
2021/03/05 08:35:47;;;;;;;5.15;2.38;;;;;;;4.27;37.48;102342.19;5073778;28;20047;-73
2021/03/05 08:38:20;;;;;;;5.13;2.30;;;;;;;4.23;38.56;102354.06;5065969;28;20045;-73
2021/03/05 08:40:50;;;;;;;3.67;2.00;;;;;;;4.23;38.86;102361.31;5073312;28;20051;-72
2021/03/05 08:43:21;;;;;;;4.82;2.50;;;;;;;4.21;38.83;102355.06;5076206;28;20032;-73
2021/03/05 08:45:50;;;;;;;4.97;2.33;;;;;;;4.17;39.08;102362.41;5088798;28;20036;-72
2021/03/05 08:48:43;;;;;;;5.78;2.35;;;;;;;4.17;38.25;102358.81;5076002;28;20426;-72
2021/03/05 08:51:14;;;;;;;4.90;2.47;;;;;;;4.13;38.78;102359.84;5086683;28;20167;-72
2021/03/05 08:53:47;;;;;;;5.43;2.80;;;;;;;4.13;38.93;102368.88;5087868;28;20543;-71
2021/03/05 08:56:20;;;;;;;4.97;2.38;;;;;;;4.14;38.93;102376.06;5085705;28;20123;-71
2021/03/05 08:58:59;;;;;;;5.53;2.85;;;;;;;4.12;38.27;102382.47;5088484;28;20040;-71
2021/03/05 09:01:31;;;;;;;4.90;2.85;;;;;;;4.07;38.85;102378.09;5087755;28;20471;-71
2021/03/05 09:04:09;;;;;;;5.15;2.75;;;;;;;4.11;38.61;102383.44;5089035;28;20032;-74
2021/03/05 09:06:53;;;;;;;4.25;2.63;;;;;;;4.13;38.88;102389.66;5088850;28;20430;-75
2021/03/05 09:09:23;;;;;;;4.85;2.95;;;;;;;4.09;39.40;102399.72;5074341;28;20036;-73
2021/03/05 09:12:12;;;;;;;5.80;3.15;;;;;;;4.05;37.97;102390.81;5099964;28;20115;-73
2021/03/05 09:14:41;;;;;;;5.97;3.00;;;;;;;4.04;39.46;102393.56;5091433;28;20062;-73
2021/03/05 09:17:09;;;;;;;6.03;3.22;;;;;;;4.00;39.24;102391.91;5093440;28;20115;-73
2021/03/05 09:19:39;;;;;;;6.65;3.50;;;;;;;4.04;38.93;102396.28;5090897;28;20388;-76
2021/03/05 09:22:12;;;;;;;5.25;3.20;;;;;;;4.10;38.75;102408.75;5088048;28;20416;-74
2021/03/05 09:24:56;;;;;;;6.20;3.30;;;;;;;4.06;38.76;102405.22;5087849;28;20040;-75
2021/03/05 09:27:26;;;;;;;5.40;3.25;;;;;;;4.02;39.23;102409.88;5091376;28;20047;-75
2021/03/05 09:29:58;;;;;;;5.13;3.40;;;;;;;4.06;39.20;102402.53;5054148;28;20398;-74
2021/03/05 09:32:26;;;;;;;6.65;3.75;;;;;;;4.00;39.47;102403.63;5071166;28;20050;-74
2021/03/05 09:34:58;;;;;;;6.28;3.90;;;;;;;4.06;39.20;102406.13;5080801;28;20025;-73
2021/03/05 09:37:28;;;;;;;6.45;3.15;;;;;;;4.07;39.33;102415.13;5084402;28;20048;-73
2021/03/05 09:39:58;;;;;;;5.38;3.50;;;;;;;4.11;39.46;102411.41;5080821;28;20050;-74
2021/03/05 09:42:47;;;;;;;7.20;3.53;;;;;;;4.12;39.68;102412.25;5090552;28;20119;-73
2021/03/05 09:45:33;;;;;;;6.47;3.38;;;;;;;4.16;39.16;102422.94;5085660;28;20055;-73
2021/03/05 09:48:01;;;;;;;6.32;3.38;;;;;;;4.19;39.81;102417.44;5063979;28;20057;-73
2021/03/05 09:50:29;;;;;;;6.63;4.07;;;;;;;4.24;40.03;102419.97;5081775;28;20075;-73
2021/03/05 09:52:57;;;;;;;6.35;3.78;;;;;;;4.27;40.04;102422.56;5094762;28;20080;-73
2021/03/05 09:55:28;;;;;;;7.68;4.18;;;;;;;4.35;39.53;102424.06;5095162;28;20070;-73
2021/03/05 09:58:08;;;;;;;7.82;3.97;;;;;;;4.43;39.75;102421.09;5095772;28;20063;-73
2021/03/05 10:00:38;;;;;;;6.53;3.88;;;;;;;4.48;39.67;102413.66;5066779;28;20070;-74
2021/03/05 10:03:08;;;;;;;8.38;4.30;;;;;;;4.49;39.56;102420.88;5075189;28;20127;-76
2021/03/05 10:05:37;;;;;;;6.00;3.50;;;;;;;4.56;39.42;102421.50;5081222;28;20054;-75
2021/03/05 10:08:13;;;;;;;7.57;4.18;;;;;;;4.62;39.13;102421.28;5091165;28;20495;-73
2021/03/05 10:11:12;;;;;;;7.65;4.65;;;;;;;4.59;38.77;102421.41;5094773;28;20044;-73
2021/03/05 10:13:47;;;;;;;7.82;3.80;;;;;;;4.67;39.68;102425.63;5072900;28;20110;-74
2021/03/05 10:16:21;;;;;;;8.05;4.03;;;;;;;4.71;39.71;102421.84;5075991;28;20036;-75
2021/03/05 10:18:53;;;;;;;5.85;3.95;;;;;;;4.78;39.53;102422.47;5072177;28;20148;-75
2021/03/05 10:21:22;;;;;;;6.50;3.97;;;;;;;4.80;39.58;102426.03;5088514;28;20063;-76
2021/03/05 10:23:50;;;;;;;7.70;4.50;;;;;;;4.83;39.40;102418.69;5087452;28;20483;-76
2021/03/05 10:26:23;;;;;;;7.57;4.45;;;;;;;4.87;38.51;102422.16;5089667;28;20514;-75
2021/03/05 10:29:00;;;;;;;7.50;4.70;;;;;;;4.94;38.31;102422.78;5090435;28;20048;-71
2021/03/05 10:31:55;;;;;;;7.00;4.43;;;;;;;4.94;37.78;102422.78;5069276;28;20059;-72
2021/03/05 10:34:29;;;;;;;7.45;3.70;;;;;;;5.06;38.55;102428.66;5043391;28;20051;-72
2021/03/05 10:36:59;;;;;;;8.90;4.28;;;;;;;5.11;39.08;102431.16;5069724;28;20036;-74
2021/03/05 10:39:31;;;;;;;6.57;3.92;;;;;;;5.15;39.13;102439.16;5066374;28;20036;-74
2021/03/05 10:42:01;;;;;;;8.45;4.32;;;;;;;5.24;38.85;102435.19;5097558;28;20067;-73
2021/03/05 10:44:31;;;;;;;7.57;4.65;;;;;;;5.28;38.87;102442.25;5093006;28;20055;-73
2021/03/05 10:47:00;;;;;;;8.25;4.30;;;;;;;5.29;38.29;102435.88;5093725;28;20060;-75
2021/03/05 10:49:29;;;;;;;8.02;4.72;;;;;;;5.38;38.55;102445.50;5096600;28;20043;-74
2021/03/05 10:51:57;;;;;;;7.05;3.92;;;;;;;5.46;38.24;102446.97;5086030;28;20476;-73
2021/03/05 10:54:24;;;;;;;10.10;4.90;;;;;;;5.45;38.33;102445.19;5076314;28;20068;-73
2021/03/05 10:56:53;;;;;;;9.20;4.57;;;;;;;5.51;37.94;102442.25;5069330;28;20086;-74
2021/03/05 10:59:26;;;;;;;6.68;4.20;;;;;;;5.62;38.12;102446.38;5069994;28;20089;-75
2021/03/05 11:01:54;;;;;;;7.18;4.07;;;;;;;5.70;38.19;102465.97;5081436;28;20094;-75
2021/03/05 11:04:23;;;;;;;7.70;4.30;;;;;;;5.77;37.90;102459.31;5083360;28;20036;-72
2021/03/05 11:06:52;;;;;;;6.10;3.88;;;;;;;5.84;37.97;102461.72;5067441;28;20044;-76
2021/03/05 11:09:20;;;;;;;7.57;4.03;;;;;;;5.84;37.65;102461.72;5073246;28;20035;-74
2021/03/05 11:11:48;;;;;;;7.45;4.10;;;;;;;5.93;37.36;102476.75;5091872;28;20163;-72
2021/03/05 11:14:15;;;;;;;6.78;4.25;;;;;;;5.94;37.18;102475.81;5095042;28;20636;-71
2021/03/05 11:16:43;;;;;;;7.40;3.60;;;;;;;5.95;36.45;102478.47;5095653;28;20040;-71
2021/03/05 11:19:11;;;;;;;6.00;3.25;;;;;;;5.95;36.40;102481.19;5092667;28;20046;-71
2021/03/05 11:21:39;;;;;;;7.40;3.40;;;;;;;6.02;36.15;102473.66;5091414;28;20032;-71
2021/03/05 11:24:08;;;;;;;6.97;3.40;;;;;;;6.07;36.04;102484.34;5092235;28;20117;-72
2021/03/05 11:26:35;;;;;;;5.65;3.30;;;;;;;6.07;36.22;102477.09;5094000;28;20591;-75
2021/03/05 11:29:03;;;;;;;6.10;2.97;;;;;;;6.10;35.87;102487.81;5097944;28;20051;-72
2021/03/05 11:31:31;;;;;;;5.28;2.83;;;;;;;6.16;35.90;102475.81;5092741;28;20094;-73
2021/03/05 11:34:00;;;;;;;6.15;2.92;;;;;;;6.20;35.87;102482.88;5087998;28;20477;-72
2021/03/05 11:36:28;;;;;;;4.90;2.70;;;;;;;6.20;35.57;102482.88;5070829;28;20032;-71
2021/03/05 11:38:55;;;;;;;5.45;3.10;;;;;;;6.24;36.05;102479.97;5086086;28;20072;-72
2021/03/05 11:41:23;;;;;;;5.38;2.92;;;;;;;6.29;35.97;102477.06;5086572;28;20032;-74
2021/03/05 11:43:56;;;;;;;6.32;3.10;;;;;;;6.32;35.79;102479.66;5096149;28;20058;-72
2021/03/05 11:46:24;;;;;;;5.32;2.72;;;;;;;6.38;35.85;102478.50;5095295;28;20487;-72
2021/03/05 11:48:51;;;;;;;5.82;3.08;;;;;;;6.43;35.74;102473.72;5090582;28;20657;-72
2021/03/05 11:51:20;;;;;;;6.10;2.67;;;;;;;6.50;35.49;102486.13;5097164;28;20078;-72
2021/03/05 11:53:48;;;;;;;5.45;2.30;;;;;;;6.52;35.25;102486.94;5090187;28;20048;-72